createdAt,value
2022-11-11T04:52:28.712Z,12.93
2022-11-11T04:55:35.062Z,13.35
2022-11-11T04:58:24.765Z,10.68
2022-11-11T05:01:11.910Z,15.85
2022-11-11T05:03:58.733Z,14.32
2022-11-11T05:07:03.838Z,14.50
2022-11-11T05:09:50.519Z,13.77
2022-11-11T05:12:37.443Z,17.40
2022-11-11T05:15:42.420Z,18.65
2022-11-11T05:18:48.269Z,20.10
2022-11-11T05:21:36.495Z,21.67
2022-11-11T05:24:43.017Z,24.55
2022-11-11T05:27:31.944Z,27.20
2022-11-11T05:30:18.921Z,24.90
2022-11-11T05:33:05.859Z,24.55
2022-11-11T05:35:51.990Z,24.17
2022-11-11T05:38:38.520Z,29.27
2022-11-11T05:41:25.901Z,30.35
2022-11-11T05:44:12.000Z,27.25
2022-11-11T05:46:58.605Z,30.38
2022-11-11T05:49:44.870Z,29.67
2022-11-11T05:52:32.195Z,27.85
2022-11-11T05:55:18.353Z,25.90
2022-11-11T05:58:04.509Z,26.17
2022-11-11T06:00:51.040Z,23.65
2022-11-11T06:03:36.551Z,23.02
2022-11-11T06:06:22.337Z,24.08
2022-11-11T06:09:13.882Z,27.77
2022-11-11T06:12:00.511Z,28.90
2022-11-11T06:14:46.461Z,30.27
2022-11-11T06:17:33.967Z,26.65
2022-11-11T06:20:20.039Z,26.03
2022-11-11T06:23:05.969Z,23.52
2022-11-11T06:26:10.444Z,22.83
2022-11-11T06:28:57.533Z,20.65
2022-11-11T06:31:43.503Z,26.55
2022-11-11T06:34:29.840Z,24.50
2022-11-11T06:37:15.904Z,29.07
2022-11-11T06:40:01.691Z,29.58
2022-11-11T06:42:47.712Z,31.00
2022-11-11T06:45:36.234Z,33.37
2022-11-11T06:48:23.822Z,33.22
2022-11-11T06:51:11.428Z,31.15
2022-11-11T06:53:57.177Z,33.47
2022-11-11T06:56:43.489Z,33.55
2022-11-11T06:59:29.295Z,34.78
2022-11-11T07:02:16.924Z,34.05
2022-11-11T07:05:03.685Z,34.05
2022-11-11T07:07:49.731Z,32.50
2022-11-11T07:10:40.614Z,32.00
2022-11-11T07:13:26.783Z,33.33
2022-11-11T07:16:13.480Z,31.47
2022-11-11T07:18:59.521Z,34.43
2022-11-11T07:21:46.474Z,32.65
2022-11-11T07:24:32.846Z,31.42
2022-11-11T07:27:18.724Z,33.65
2022-11-11T07:30:07.184Z,25.98
2022-11-11T07:32:53.897Z,24.08
2022-11-11T07:38:26.089Z,24.15
2022-11-11T07:41:12.399Z,26.80
2022-11-11T07:43:58.243Z,25.98
2022-11-11T07:46:44.800Z,33.13
2022-11-11T07:49:30.834Z,30.58
2022-11-11T07:52:16.721Z,25.45
2022-11-11T07:55:02.477Z,27.00
2022-11-11T07:57:52.222Z,35.10
2022-11-11T08:00:38.221Z,29.70
2022-11-11T08:03:24.679Z,23.13
2022-11-11T08:06:10.917Z,24.35
2022-11-11T08:08:56.768Z,27.08
2022-11-11T08:12:00.988Z,27.77
2022-11-11T08:14:46.984Z,25.08
2022-11-11T08:20:21.867Z,26.48
2022-11-11T08:29:02.251Z,24.42
2022-11-11T08:31:47.934Z,24.67
2022-11-11T08:34:33.823Z,22.50
2022-11-11T08:37:19.929Z,23.73
2022-11-11T08:40:06.215Z,23.02
2022-11-11T08:42:56.098Z,32.65
2022-11-11T08:45:41.947Z,22.13
2022-11-11T08:48:27.912Z,24.95
2022-11-11T08:51:14.199Z,22.30
2022-11-11T08:53:59.873Z,20.15
2022-11-11T08:56:45.659Z,16.25
2022-11-11T08:59:31.180Z,24.48
2022-11-11T09:02:17.434Z,13.87
2022-11-11T09:05:03.971Z,13.32
2022-11-11T09:07:49.694Z,15.40
2022-11-11T09:10:35.875Z,16.33
2022-11-11T09:13:21.539Z,16.23
2022-11-11T09:16:08.957Z,14.70
2022-11-11T09:18:54.954Z,17.75
2022-11-11T09:21:40.900Z,13.10
2022-11-11T09:24:26.740Z,11.50
2022-11-11T09:27:12.611Z,7.95
2022-11-11T09:29:58.357Z,10.60
2022-11-11T09:32:44.344Z,14.23
2022-11-11T09:35:30.562Z,10.88
2022-11-11T09:38:16.207Z,12.52
2022-11-11T09:41:10.992Z,13.55
2022-11-11T09:43:59.784Z,16.55
2022-11-11T09:47:24.012Z,12.38
2022-11-11T09:50:18.933Z,13.27
2022-11-11T09:53:18.264Z,16.08
2022-11-11T09:56:29.809Z,15.60
2022-11-11T09:59:27.537Z,17.23
2022-11-11T10:02:26.427Z,18.38
2022-11-11T10:05:19.543Z,19.10
2022-11-11T10:08:17.218Z,21.95
2022-11-11T10:11:11.884Z,23.02
2022-11-11T10:13:58.129Z,23.98
2022-11-11T10:17:05.147Z,24.27
2022-11-11T10:20:17.878Z,22.57
2022-11-11T10:23:13.621Z,20.48
2022-11-11T10:26:07.145Z,20.73
2022-11-11T10:28:53.713Z,21.40
2022-11-11T10:31:41.901Z,19.58
2022-11-11T10:34:33.457Z,72.53
2022-11-11T10:37:23.686Z,18.42
2022-11-11T10:40:21.858Z,13.98
2022-11-11T10:43:19.569Z,16.00
2022-11-11T10:46:31.064Z,18.00
2022-11-11T10:49:24.119Z,18.42
2022-11-11T10:52:20.679Z,17.15
2022-11-11T10:55:12.910Z,20.73
2022-11-11T10:58:13.003Z,24.15
2022-11-11T11:01:02.646Z,18.80
2022-11-11T11:04:12.192Z,21.02
2022-11-11T11:07:01.879Z,18.77
2022-11-11T11:10:02.765Z,18.17
2022-11-11T11:13:06.235Z,18.67
2022-11-11T11:15:58.033Z,23.65
2022-11-11T11:18:44.549Z,20.23
2022-11-11T11:24:43.707Z,19.58
2022-11-11T11:27:30.328Z,20.45
2022-11-11T11:30:19.638Z,23.37
2022-11-11T11:33:08.042Z,19.80
2022-11-11T11:35:53.729Z,22.27
2022-11-11T11:38:41.668Z,22.00
2022-11-11T11:41:52.047Z,19.60
2022-11-11T11:44:38.869Z,19.55
2022-11-11T11:47:44.159Z,19.48
2022-11-11T11:50:35.529Z,18.20
2022-11-11T11:53:36.031Z,22.50
2022-11-11T11:56:27.522Z,19.75
2022-11-11T11:59:38.026Z,17.85
2022-11-11T12:03:08.723Z,19.80
2022-11-11T12:06:12.852Z,19.58
2022-11-11T12:09:34.330Z,22.13
2022-11-11T12:12:37.348Z,17.75
2022-11-11T12:15:38.249Z,15.85
2022-11-11T12:18:53.156Z,18.40
2022-11-11T12:22:03.439Z,20.60
2022-11-11T12:25:14.007Z,18.38
2022-11-11T12:28:15.214Z,19.00
2022-11-11T12:31:27.175Z,20.38
2022-11-11T12:34:23.007Z,17.05
2022-11-11T12:37:12.000Z,14.07
2022-11-11T12:40:16.474Z,16.35
2022-11-11T12:43:29.688Z,18.70
2022-11-11T12:46:37.835Z,18.42
2022-11-11T12:49:50.289Z,17.33
2022-11-11T12:52:51.448Z,22.25
2022-11-11T12:55:57.388Z,21.70
2022-11-11T12:59:20.428Z,19.50
2022-11-11T13:02:09.066Z,19.67
2022-11-11T13:05:16.385Z,18.88
2022-11-11T13:08:40.663Z,24.83
2022-11-11T13:11:54.207Z,18.50
2022-11-11T13:14:55.804Z,23.38
2022-11-11T13:17:44.684Z,17.73
2022-11-11T13:20:52.232Z,39.88
2022-11-11T13:23:38.219Z,21.00
2022-11-11T13:26:32.605Z,28.48
2022-11-11T13:29:32.762Z,22.35
2022-11-11T13:32:25.220Z,21.38
2022-11-11T13:35:22.139Z,18.98
2022-11-11T13:38:23.523Z,24.88
2022-11-11T13:41:10.359Z,18.75
2022-11-11T13:44:01.748Z,18.90
2022-11-11T13:46:50.118Z,18.40
2022-11-11T13:49:43.757Z,18.67
2022-11-11T13:52:38.066Z,17.95
2022-11-11T13:55:31.526Z,18.63
2022-11-11T13:58:27.849Z,18.95
2022-11-11T14:01:16.297Z,18.98
2022-11-11T14:04:07.987Z,20.73
2022-11-11T14:06:54.535Z,19.23
2022-11-11T14:09:54.230Z,18.90
2022-11-11T14:12:42.087Z,19.88
2022-11-11T14:15:50.175Z,22.23
2022-11-11T14:18:41.025Z,22.00
2022-11-11T14:21:58.790Z,20.90
2022-11-11T14:24:46.644Z,25.15
2022-11-11T14:27:34.181Z,24.05
2022-11-11T14:30:36.565Z,22.67
2022-11-11T14:33:47.228Z,24.73
2022-11-11T14:37:08.872Z,24.60
2022-11-11T14:39:56.050Z,26.33
2022-11-11T14:42:44.655Z,24.35
2022-11-11T14:45:30.655Z,26.90
2022-11-11T14:48:50.310Z,29.33
2022-11-11T14:51:50.254Z,28.38
2022-11-11T14:54:50.845Z,28.55
2022-11-11T14:57:48.489Z,32.00
2022-11-11T15:00:48.228Z,34.15
2022-11-11T15:03:49.924Z,36.88
2022-11-11T15:06:44.277Z,37.53
2022-11-11T15:09:45.400Z,47.72
2022-11-11T15:12:54.147Z,44.50
2022-11-11T15:15:40.044Z,36.70
2022-11-11T15:18:51.332Z,36.38
2022-11-11T15:21:46.486Z,39.67
2022-11-11T15:24:44.351Z,39.92
2022-11-11T15:27:40.456Z,36.90
2022-11-11T15:30:55.425Z,40.08
2022-11-11T15:33:52.907Z,44.00
2022-11-11T15:37:00.051Z,42.15
2022-11-11T15:39:53.120Z,41.72
2022-11-11T15:42:45.995Z,41.70
2022-11-11T15:45:34.877Z,42.58
2022-11-11T15:48:28.583Z,47.63
2022-11-11T15:51:25.893Z,45.72
2022-11-11T15:54:26.465Z,47.17
2022-11-11T15:57:22.852Z,48.78
2022-11-11T16:00:25.062Z,46.55
2022-11-11T16:03:17.224Z,49.00
2022-11-11T16:06:07.583Z,50.20
2022-11-11T16:08:56.593Z,48.58
2022-11-11T16:11:43.339Z,54.28
2022-11-11T16:14:40.118Z,55.50
2022-11-11T16:17:31.209Z,51.92
2022-11-11T16:20:21.240Z,52.72
2022-11-11T16:23:09.008Z,55.35
2022-11-11T16:25:57.888Z,55.33
2022-11-11T16:28:52.810Z,51.97
2022-11-11T16:31:44.703Z,52.85
2022-11-11T16:34:38.185Z,52.78
2022-11-11T16:37:24.428Z,51.50
2022-11-11T16:40:34.406Z,49.28
2022-11-11T16:43:27.967Z,52.63
2022-11-11T16:46:15.990Z,51.53
2022-11-11T16:49:16.620Z,49.08
2022-11-11T16:52:16.795Z,47.15
2022-11-11T16:55:03.114Z,48.53
2022-11-11T16:57:49.708Z,47.30
2022-11-11T17:00:38.447Z,46.75
2022-11-11T17:03:25.971Z,48.33
2022-11-11T17:06:12.354Z,48.30
2022-11-11T17:08:58.077Z,51.17
2022-11-11T17:11:46.220Z,50.50
2022-11-11T17:14:34.829Z,44.55
2022-11-11T17:17:21.236Z,46.72
2022-11-11T17:20:13.648Z,46.58
2022-11-11T17:22:59.612Z,42.17
2022-11-11T17:25:45.813Z,44.30
2022-11-11T17:28:36.605Z,45.42
2022-11-11T17:31:24.034Z,47.30
2022-11-11T17:34:10.379Z,42.75
2022-11-11T17:36:56.818Z,46.75
2022-11-11T17:39:45.146Z,41.45
2022-11-11T17:42:32.400Z,38.97
2022-11-11T17:48:04.943Z,40.47
2022-11-11T17:50:50.715Z,37.78
2022-11-11T17:53:37.237Z,39.23
2022-11-11T17:56:26.626Z,40.25
2022-11-11T17:59:12.460Z,36.95
2022-11-11T18:01:58.990Z,39.53
2022-11-11T18:04:44.880Z,39.22
2022-11-11T18:07:30.391Z,40.53
2022-11-11T18:10:16.623Z,38.63
2022-11-11T18:13:02.346Z,39.63
2022-11-11T18:15:48.033Z,35.92
2022-11-11T18:18:34.544Z,36.15
2022-11-11T18:21:21.525Z,32.80
2022-11-11T18:24:08.933Z,39.17
2022-11-11T18:26:54.638Z,38.00
2022-11-11T18:29:41.053Z,41.15
2022-11-11T18:32:27.291Z,39.53
2022-11-11T18:35:13.655Z,42.03
2022-11-11T18:37:59.783Z,39.40
2022-11-11T18:40:45.545Z,38.45
2022-11-11T18:43:44.209Z,38.90
2022-11-11T18:46:30.292Z,38.35
2022-11-11T18:49:16.279Z,38.43
2022-11-11T18:52:01.879Z,37.63
2022-11-11T18:54:47.781Z,41.40
2022-11-11T18:57:33.934Z,39.00
2022-11-11T19:00:21.492Z,40.13
2022-11-11T19:03:07.507Z,39.63
2022-11-11T19:05:52.991Z,36.10
2022-11-11T19:08:39.219Z,35.25
2022-11-11T19:11:26.455Z,39.67
2022-11-11T19:14:17.380Z,37.40
2022-11-11T19:17:06.443Z,34.85
2022-11-11T19:19:55.389Z,37.17
2022-11-11T19:22:41.332Z,36.80
2022-11-11T19:25:27.143Z,36.42
2022-11-11T19:28:12.912Z,35.30
2022-11-11T19:31:06.623Z,36.17
2022-11-11T19:33:54.652Z,37.83
2022-11-11T19:36:40.950Z,35.47
2022-11-11T19:39:26.714Z,38.55
2022-11-11T19:42:12.611Z,38.40
2022-11-11T19:45:00.003Z,36.15
2022-11-11T19:47:48.836Z,37.10
2022-11-11T19:50:34.732Z,40.50
2022-11-11T19:53:20.685Z,40.15
2022-11-11T19:56:11.706Z,36.30
2022-11-11T19:58:58.183Z,36.95
2022-11-11T20:01:43.971Z,35.37
2022-11-11T20:04:30.340Z,42.22
2022-11-11T20:07:16.592Z,38.97
2022-11-11T20:10:03.398Z,37.58
2022-11-11T20:12:53.575Z,37.83
2022-11-11T20:15:41.767Z,39.17
2022-11-11T20:18:30.116Z,36.47
2022-11-11T20:21:17.308Z,35.60
2022-11-11T20:24:05.695Z,34.93
2022-11-11T20:26:54.078Z,34.40
2022-11-11T20:29:41.068Z,34.97
2022-11-11T20:32:28.346Z,36.65
2022-11-11T20:35:14.964Z,38.72
2022-11-11T20:38:01.977Z,36.45
2022-11-11T20:40:59.961Z,38.80
2022-11-11T20:43:47.263Z,36.80
2022-11-11T20:46:33.920Z,35.58
2022-11-11T20:49:21.441Z,37.58
2022-11-11T20:52:07.747Z,35.45
2022-11-11T20:54:54.629Z,35.58
2022-11-11T20:57:42.095Z,34.15
2022-11-11T21:00:29.114Z,35.85
2022-11-11T21:03:14.796Z,40.90
2022-11-11T21:06:08.437Z,38.20
2022-11-11T21:08:54.754Z,40.55
2022-11-11T21:11:40.733Z,43.05
2022-11-11T21:14:26.598Z,44.00
2022-11-11T21:17:12.904Z,41.90
2022-11-11T21:19:58.621Z,46.85
2022-11-11T21:22:44.737Z,46.80
2022-11-11T21:25:35.326Z,44.28
2022-11-11T21:28:22.565Z,48.25
2022-11-11T21:31:16.278Z,46.30
2022-11-11T21:34:09.132Z,44.55
2022-11-11T21:36:55.111Z,39.53
2022-11-11T21:39:42.084Z,40.50
2022-11-11T21:42:28.959Z,37.38
2022-11-11T21:45:15.711Z,35.70
2022-11-11T21:48:01.877Z,32.45
2022-11-11T21:50:48.445Z,34.17
2022-11-11T21:53:36.237Z,34.67
2022-11-11T21:56:23.634Z,34.65
2022-11-11T21:59:10.384Z,32.33
2022-11-11T22:01:57.512Z,32.92
2022-11-11T22:04:43.968Z,34.83
2022-11-11T22:07:30.164Z,34.92
2022-11-11T22:10:16.864Z,35.17
2022-11-11T22:13:03.880Z,34.25
2022-11-11T22:15:58.369Z,37.22
2022-11-11T22:18:44.962Z,36.33
2022-11-11T22:21:37.088Z,35.97
2022-11-11T22:24:23.324Z,37.43
2022-11-11T22:27:09.115Z,37.88
2022-11-11T22:29:54.854Z,39.50
2022-11-11T22:32:40.847Z,41.33
2022-11-11T22:35:27.531Z,38.80
2022-11-11T22:38:15.585Z,37.22
2022-11-11T22:41:12.796Z,37.80
2022-11-11T22:44:01.101Z,37.15
2022-11-11T22:46:48.068Z,37.45
2022-11-11T22:49:35.574Z,37.83
2022-11-11T22:52:22.771Z,37.45
2022-11-11T22:55:11.314Z,37.92
2022-11-11T22:57:58.269Z,38.08
2022-11-11T23:00:44.586Z,37.97
2022-11-11T23:03:40.127Z,39.40
2022-11-11T23:06:31.039Z,35.47
2022-11-11T23:09:17.266Z,36.70
2022-11-11T23:12:05.154Z,35.03
2022-11-11T23:14:51.875Z,32.78
2022-11-11T23:17:38.736Z,32.17
2022-11-11T23:20:26.185Z,31.17
2022-11-11T23:23:13.487Z,32.60
2022-11-11T23:26:08.416Z,30.60
2022-11-11T23:28:56.313Z,34.03
2022-11-11T23:31:42.666Z,35.28
2022-11-11T23:34:29.905Z,35.57
2022-11-11T23:37:16.324Z,34.37
2022-11-11T23:40:02.380Z,35.58
2022-11-11T23:42:48.377Z,35.85
2022-11-11T23:45:34.115Z,36.00
2022-11-11T23:48:20.876Z,36.37
2022-11-11T23:51:07.071Z,36.47
2022-11-11T23:53:53.036Z,33.25
2022-11-11T23:56:39.333Z,34.67
2022-11-11T23:59:25.633Z,39.55
